Time;durP1;ratioP1;P1;durP2;ratioP2;P2;SDS_P1;SDS_P2;PMS_P1;PMS_P2;Temp;Humidity;BMP_temperature;BMP_pressure;BME280_temperature;BME280_humidity;BME280_pressure;Samples;Min_cycle;Max_cycle;Signal;HPM_P1;HPM_P2
2021/06/08 00:01:06;;;;;;;18.52;16.60;;;;;;;18.12;66.34;101106.31;4887720;28;127792;-70
2021/06/08 00:03:32;;;;;;;17.08;15.57;;;;;;;18.05;66.87;101105.09;4905386;28;98316;-70
2021/06/08 00:05:58;;;;;;;17.83;16.05;;;;;;;18.07;67.28;101111.03;4886296;28;126835;-71
2021/06/08 00:08:24;;;;;;;18.65;16.90;;;;;;;18.08;67.57;101107.22;4904617;28;98114;-70
2021/06/08 00:10:50;;;;;;;17.75;16.15;;;;;;;18.17;67.40;101107.31;4902775;28;128034;-69
2021/06/08 00:13:17;;;;;;;18.33;16.52;;;;;;;18.20;67.71;101112.19;4920898;28;128719;-69
2021/06/08 00:15:43;;;;;;;18.63;16.83;;;;;;;18.19;67.78;101116.81;4920596;28;128011;-69
2021/06/08 00:18:09;;;;;;;18.38;16.67;;;;;;;18.05;68.40;101114.09;4920288;28;102173;-70
2021/06/08 00:20:35;;;;;;;19.90;18.00;;;;;;;18.03;68.66;101113.56;4918679;28;118072;-70
2021/06/08 00:23:01;;;;;;;19.33;17.42;;;;;;;18.10;68.21;101115.91;4905812;28;127775;-70
2021/06/08 00:25:27;;;;;;;19.48;17.58;;;;;;;17.67;69.63;101124.28;4906245;28;127294;-71
2021/06/08 00:27:53;;;;;;;19.35;17.55;;;;;;;17.66;69.99;101120.75;4908044;28;113466;-69
2021/06/08 00:30:20;;;;;;;18.92;17.13;;;;;;;17.82;69.64;101123.25;4938207;28;98436;-71
2021/06/08 00:32:46;;;;;;;19.65;17.85;;;;;;;17.86;69.43;101116.06;4890415;28;98778;-72
2021/06/08 00:35:12;;;;;;;20.48;18.35;;;;;;;17.49;70.97;101116.94;4923951;28;127286;-71
2021/06/08 00:37:39;;;;;;;20.27;18.27;;;;;;;17.73;70.10;101120.38;4925470;28;97673;-71
2021/06/08 00:40:06;;;;;;;20.98;19.17;;;;;;;17.66;70.20;101123.47;4944481;28;99139;-71
2021/06/08 00:42:34;;;;;;;20.58;18.67;;;;;;;17.64;70.91;101117.53;4944202;28;99224;-71
2021/06/08 00:45:01;;;;;;;21.75;19.65;;;;;;;17.33;71.89;101119.13;4944715;28;98162;-71
2021/06/08 00:47:27;;;;;;;21.83;19.80;;;;;;;17.59;70.84;101114.88;4944200;28;97994;-69
2021/06/08 00:49:53;;;;;;;22.05;19.85;;;;;;;17.60;71.05;101113.75;4944968;28;98650;-71
2021/06/08 00:52:19;;;;;;;22.25;20.08;;;;;;;17.56;71.04;101112.72;4930411;28;113129;-72
2021/06/08 00:54:45;;;;;;;22.73;20.63;;;;;;;17.56;71.30;101118.19;4925515;28;97778;-69
2021/06/08 00:57:11;;;;;;;21.92;19.75;;;;;;;17.46;71.78;101110.19;4928369;28;114579;-72
2021/06/08 00:59:37;;;;;;;23.17;20.90;;;;;;;17.45;71.98;101113.19;4931757;28;126821;-71
2021/06/08 01:02:04;;;;;;;23.23;21.08;;;;;;;17.69;71.13;101115.81;4906776;28;99755;-69
2021/06/08 01:04:30;;;;;;;23.65;21.35;;;;;;;17.49;72.08;101111.50;4946330;28;97675;-69
2021/06/08 01:06:56;;;;;;;25.10;22.60;;;;;;;17.61;71.91;101109.13;4944162;28;105218;-69
2021/06/08 01:09:22;;;;;;;24.08;21.77;;;;;;;17.62;71.58;101111.56;4943530;28;128396;-72
2021/06/08 01:11:48;;;;;;;24.25;21.95;;;;;;;17.58;71.37;101105.09;4944490;28;98614;-71
2021/06/08 01:14:14;;;;;;;23.13;20.95;;;;;;;17.55;71.53;101107.59;4941038;28;114294;-71
2021/06/08 01:16:40;;;;;;;23.15;20.98;;;;;;;17.65;71.43;101100.06;4944211;28;113773;-70
2021/06/08 01:19:06;;;;;;;23.92;21.73;;;;;;;17.50;71.66;101097.59;4942971;28;127168;-71
2021/06/08 01:21:32;;;;;;;26.10;23.35;;;;;;;17.50;72.28;101100.31;4941758;28;128109;-69
2021/06/08 01:23:59;;;;;;;26.60;24.13;;;;;;;17.33;72.90;101108.22;4925878;28;98078;-69
2021/06/08 01:26:26;;;;;;;26.88;24.13;;;;;;;17.45;73.04;101097.69;4943403;28;113802;-71
2021/06/08 01:28:53;;;;;;;26.25;23.63;;;;;;;17.22;73.60;101093.16;4940587;28;98456;-71
2021/06/08 01:31:22;;;;;;;26.80;24.05;;;;;;;17.39;73.14;101098.88;4924169;28;114125;-71
2021/06/08 01:33:48;;;;;;;26.70;24.08;;;;;;;17.27;73.46;101103.97;4925444;28;98201;-69
2021/06/08 01:36:19;;;;;;;27.15;24.45;;;;;;;17.11;74.19;101104.19;4925379;28;108958;-71
2021/06/08 01:38:46;;;;;;;27.17;24.67;;;;;;;17.18;73.78;101103.84;4941537;28;100513;-69
2021/06/08 01:41:13;;;;;;;26.50;23.90;;;;;;;17.26;73.44;101102.34;4912336;28;98167;-71
2021/06/08 01:43:44;;;;;;;26.42;23.95;;;;;;;17.27;73.21;101101.25;4923962;28;99603;-69
2021/06/08 01:46:10;;;;;;;28.17;25.38;;;;;;;17.17;73.30;101100.31;4923743;28;103344;-71
2021/06/08 01:48:36;;;;;;;26.92;24.23;;;;;;;17.12;73.96;101100.38;4923886;28;98417;-69
2021/06/08 01:51:48;;;;;;;28.02;25.23;;;;;;;16.94;74.14;101098.47;4922143;28;98641;-71
2021/06/08 01:55:04;;;;;;;27.17;24.40;;;;;;;17.12;73.78;101094.13;4903362;28;98652;-72
2021/06/08 01:57:50;;;;;;;27.17;24.33;;;;;;;16.99;74.41;101103.03;4939463;28;97938;-69
2021/06/08 02:00:18;;;;;;;26.77;24.17;;;;;;;17.14;73.79;101103.63;4941073;28;99240;-69
2021/06/08 02:03:28;;;;;;;27.63;24.92;;;;;;;17.11;74.16;101100.66;4941606;28;99244;-69
2021/06/08 02:06:10;;;;;;;27.17;24.30;;;;;;;17.18;73.87;101101.91;4940728;28;108689;-71
2021/06/08 02:08:41;;;;;;;26.52;23.83;;;;;;;17.08;74.32;101117.59;4942004;28;98450;-71
2021/06/08 02:11:36;;;;;;;28.42;25.63;;;;;;;17.00;74.70;101108.19;4941385;28;98208;-71
2021/06/08 02:14:08;;;;;;;27.25;24.42;;;;;;;17.07;74.57;101105.91;4940945;28;98534;-69
2021/06/08 02:16:45;;;;;;;28.08;25.17;;;;;;;16.98;74.56;101102.22;4941376;28;97924;-71
2021/06/08 02:19:11;;;;;;;28.13;25.33;;;;;;;17.10;73.53;101105.31;4926189;28;98124;-73
2021/06/08 02:21:43;;;;;;;27.67;24.90;;;;;;;16.97;74.25;101107.94;4907975;28;125118;-71
2021/06/08 02:24:10;;;;;;;27.40;24.70;;;;;;;17.01;74.13;101103.53;4904334;28;118762;-71
2021/06/08 02:26:38;;;;;;;29.60;25.63;;;;;;;16.91;74.18;101108.03;4889354;28;102737;-69
2021/06/08 02:29:05;;;;;;;27.85;24.95;;;;;;;16.90;73.80;101111.88;4922558;28;98136;-69
2021/06/08 02:31:31;;;;;;;27.85;25.05;;;;;;;16.74;74.65;101115.91;4922336;28;112429;-71
2021/06/08 02:33:57;;;;;;;28.42;25.50;;;;;;;16.77;74.86;101107.13;4923556;28;108320;-69
2021/06/08 02:36:23;;;;;;;26.98;24.13;;;;;;;16.58;75.60;101115.25;4903846;28;127281;-69
2021/06/08 02:38:49;;;;;;;28.50;25.40;;;;;;;16.53;75.72;101112.59;4923174;28;113877;-71
2021/06/08 02:41:15;;;;;;;27.58;24.77;;;;;;;16.74;74.90;101118.63;4903908;28;128367;-71
2021/06/08 02:43:42;;;;;;;27.58;24.77;;;;;;;16.77;74.88;101119.94;4922220;28;116124;-71
2021/06/08 02:46:08;;;;;;;28.30;25.45;;;;;;;16.83;74.48;101124.22;4887480;28;127264;-69
2021/06/08 02:48:36;;;;;;;26.90;23.98;;;;;;;16.69;75.18;101119.47;4888365;28;113930;-71
2021/06/08 02:51:02;;;;;;;27.25;24.38;;;;;;;16.78;74.64;101127.84;4920970;28;98374;-69
2021/06/08 02:53:28;;;;;;;27.45;24.55;;;;;;;16.74;75.11;101125.97;4931249;28;108176;-71
2021/06/08 02:55:54;;;;;;;26.95;24.05;;;;;;;16.76;75.12;101129.22;4940093;28;98132;-69
2021/06/08 02:58:21;;;;;;;26.70;23.33;;;;;;;16.80;74.81;101136.50;4939739;28;113675;-71
2021/06/08 03:00:47;;;;;;;25.48;22.65;;;;;;;16.63;75.57;101138.88;4941642;28;98380;-69
2021/06/08 03:03:19;;;;;;;26.05;23.45;;;;;;;16.74;75.02;101134.97;4924092;28;99810;-69
2021/06/08 03:06:07;;;;;;;27.13;24.20;;;;;;;16.67;74.98;101135.28;4940400;28;114939;-69
2021/06/08 03:08:46;;;;;;;26.33;23.52;;;;;;;16.62;75.17;101137.25;4921088;28;98964;-69
2021/06/08 03:11:19;;;;;;;27.58;24.52;;;;;;;16.71;74.72;101143.69;4918473;28;111649;-68
2021/06/08 03:13:46;;;;;;;26.10;23.35;;;;;;;16.61;75.71;101143.78;4923704;28;114102;-69
2021/06/08 03:16:12;;;;;;;26.83;23.92;;;;;;;16.77;75.11;101150.69;4941016;28;97879;-69
2021/06/08 03:18:38;;;;;;;26.40;23.60;;;;;;;16.72;75.25;101152.66;4914330;28;111951;-69
2021/06/08 03:21:18;;;;;;;27.35;24.45;;;;;;;16.66;75.55;101160.06;4893592;28;129074;-71
2021/06/08 03:23:55;;;;;;;27.38;23.67;;;;;;;16.76;75.43;101162.69;4939144;28;99003;-69
2021/06/08 03:26:21;;;;;;;26.02;23.23;;;;;;;16.66;75.09;101160.06;4940252;28;97913;-69
2021/06/08 03:28:47;;;;;;;26.52;22.95;;;;;;;16.84;74.57;101162.03;4923253;28;98533;-71
2021/06/08 03:31:14;;;;;;;26.90;22.85;;;;;;;16.78;74.88;101165.09;4906230;28;98514;-69
2021/06/08 03:33:40;;;;;;;28.60;24.63;;;;;;;16.68;75.25;101161.38;4906695;28;127955;-69
2021/06/08 03:36:07;;;;;;;26.77;23.98;;;;;;;16.75;75.03;101171.16;4906599;28;117968;-68
2021/06/08 03:38:33;;;;;;;26.42;23.52;;;;;;;16.71;75.24;101162.72;4898828;28;112799;-72
2021/06/08 03:41:00;;;;;;;26.23;23.48;;;;;;;16.83;74.91;101165.06;4903851;28;126809;-68
2021/06/08 03:43:26;;;;;;;27.58;24.58;;;;;;;16.72;75.08;101172.50;4904241;28;98633;-69
2021/06/08 03:45:52;;;;;;;27.08;24.05;;;;;;;16.93;75.16;101175.81;4887302;28;127358;-68
2021/06/08 03:48:19;;;;;;;28.65;25.05;;;;;;;16.78;75.28;101170.56;4921789;28;107498;-68
2021/06/08 03:50:45;;;;;;;30.58;27.00;;;;;;;16.75;75.57;101171.16;4933359;28;98610;-71
2021/06/08 03:53:11;;;;;;;27.75;24.63;;;;;;;16.99;74.76;101179.28;4921479;28;109342;-69
2021/06/08 03:55:37;;;;;;;30.48;25.25;;;;;;;16.82;75.54;101177.03;4903791;28;98542;-69
2021/06/08 03:58:11;;;;;;;31.60;25.13;;;;;;;17.03;74.97;101188.50;4921097;28;113756;-71
2021/06/08 04:00:37;;;;;;;29.10;25.98;;;;;;;16.95;75.56;101189.94;4920269;28;98291;-68
2021/06/08 04:03:05;;;;;;;35.47;26.10;;;;;;;16.98;75.46;101180.38;4903538;28;113537;-71
2021/06/08 04:05:31;;;;;;;29.33;25.08;;;;;;;16.79;75.81;101189.34;4888341;28;98163;-69
2021/06/08 04:07:57;;;;;;;31.58;25.50;;;;;;;17.04;75.26;101188.19;4905084;28;98037;-71
2021/06/08 04:10:23;;;;;;;27.55;23.92;;;;;;;17.02;74.97;101190.41;4903265;28;127490;-71
2021/06/08 04:12:50;;;;;;;29.23;24.55;;;;;;;17.18;75.02;101191.00;4905758;28;98588;-71
2021/06/08 04:15:16;;;;;;;27.55;24.48;;;;;;;17.11;75.26;101190.56;4921642;28;99529;-71
2021/06/08 04:17:42;;;;;;;30.23;25.55;;;;;;;16.84;75.73;101199.34;4924017;28;98140;-71
2021/06/08 04:20:10;;;;;;;29.58;25.88;;;;;;;16.77;76.20;101196.97;4920676;28;98524;-69
2021/06/08 04:22:37;;;;;;;31.15;26.85;;;;;;;16.54;77.31;101205.94;4921633;28;99286;-71
2021/06/08 04:25:05;;;;;;;29.52;24.67;;;;;;;16.96;76.21;101198.94;4921367;28;109794;-71
2021/06/08 04:27:31;;;;;;;27.52;24.48;;;;;;;17.14;75.87;101198.94;4922032;28;106714;-68
2021/06/08 04:29:58;;;;;;;28.08;24.40;;;;;;;16.93;76.10;101200.31;4922496;28;126778;-72
2021/06/08 04:32:24;;;;;;;28.33;23.83;;;;;;;17.20;75.43;101199.69;4921542;28;116858;-71
2021/06/08 04:34:55;;;;;;;26.75;23.90;;;;;;;17.35;74.54;101202.19;4922617;28;98019;-69
2021/06/08 04:37:21;;;;;;;28.30;23.60;;;;;;;17.38;74.27;101200.78;4920583;28;98091;-71
2021/06/08 04:39:48;;;;;;;26.10;22.90;;;;;;;17.47;74.08;101195.47;4922101;28;113457;-71
2021/06/08 04:42:16;;;;;;;28.38;24.95;;;;;;;17.39;74.35;101202.41;4918777;28;113727;-68
2021/06/08 04:44:49;;;;;;;26.65;23.75;;;;;;;17.62;73.64;101200.69;4935658;28;97888;-68
2021/06/08 04:47:21;;;;;;;26.67;23.63;;;;;;;17.83;72.80;101204.72;4938192;28;98020;-72
2021/06/08 04:49:49;;;;;;;26.98;23.05;;;;;;;17.85;72.94;101209.91;4935617;28;107913;-72
2021/06/08 04:52:15;;;;;;;26.75;23.95;;;;;;;17.76;72.89;101208.94;4937792;28;99063;-68
2021/06/08 04:54:42;;;;;;;26.10;23.30;;;;;;;17.90;72.62;101207.88;4935281;28;115497;-71
2021/06/08 04:57:09;;;;;;;26.85;23.10;;;;;;;17.98;72.14;101213.78;4923978;28;98065;-71
2021/06/08 04:59:50;;;;;;;25.60;22.85;;;;;;;18.15;72.04;101216.75;4903172;28;98780;-71
2021/06/08 05:02:23;;;;;;;25.67;22.90;;;;;;;18.13;71.65;101216.25;4936612;28;98563;-72
2021/06/08 05:04:49;;;;;;;27.13;24.33;;;;;;;18.13;71.52;101224.44;4939061;28;98042;-69
2021/06/08 05:07:16;;;;;;;26.38;22.75;;;;;;;18.28;70.84;101221.44;4937870;28;113604;-69
2021/06/08 05:09:45;;;;;;;25.05;22.42;;;;;;;18.41;70.19;101217.09;4944159;28;98506;-69
2021/06/08 05:12:12;;;;;;;24.13;21.63;;;;;;;18.45;70.72;101218.09;4942086;28;98919;-69
2021/06/08 05:14:43;;;;;;;26.67;23.73;;;;;;;18.42;70.05;101218.69;4922860;28;116127;-69
2021/06/08 05:17:09;;;;;;;25.00;22.37;;;;;;;18.58;69.70;101214.56;4926662;28;97931;-72
2021/06/08 05:19:35;;;;;;;26.08;23.30;;;;;;;18.49;70.11;101223.78;4907802;28;126187;-72
2021/06/08 05:22:02;;;;;;;24.65;22.10;;;;;;;18.73;69.30;101229.06;4889232;28;127977;-72
2021/06/08 05:24:28;;;;;;;24.58;22.02;;;;;;;18.73;68.98;101224.41;4906935;28;98810;-69
2021/06/08 05:26:54;;;;;;;24.55;21.92;;;;;;;18.98;68.44;101225.81;4906610;28;98131;-69
2021/06/08 05:29:23;;;;;;;26.00;22.77;;;;;;;18.87;68.70;101225.22;4922643;28;127198;-69
2021/06/08 05:31:49;;;;;;;25.25;22.58;;;;;;;18.93;68.74;101238.75;4925966;28;99115;-73
2021/06/08 05:34:16;;;;;;;25.77;22.95;;;;;;;18.92;68.71;101235.22;4924397;28;98357;-69
2021/06/08 05:36:42;;;;;;;25.10;22.52;;;;;;;18.97;68.16;101237.84;4922338;28;98290;-69
2021/06/08 05:39:09;;;;;;;27.08;23.58;;;;;;;18.87;68.59;101233.41;4922607;28;118860;-72
2021/06/08 05:41:35;;;;;;;25.33;22.73;;;;;;;18.62;69.20;101237.41;4924486;28;98449;-73
2021/06/08 05:44:01;;;;;;;26.48;23.88;;;;;;;19.06;68.22;101232.47;4937588;28;102511;-72
2021/06/08 05:46:32;;;;;;;27.00;24.30;;;;;;;19.00;67.71;101234.50;4944026;28;97993;-69
2021/06/08 05:48:59;;;;;;;25.95;23.17;;;;;;;19.17;67.26;101239.34;4941858;28;98595;-72
2021/06/08 05:51:25;;;;;;;27.40;24.58;;;;;;;18.79;68.00;101242.31;4941501;28;106063;-72
2021/06/08 05:53:51;;;;;;;25.83;23.10;;;;;;;19.21;66.95;101237.59;4939820;28;115217;-69
2021/06/08 05:56:17;;;;;;;26.92;24.23;;;;;;;18.99;67.35;101238.38;4909630;28;98112;-69
2021/06/08 05:58:43;;;;;;;27.13;24.00;;;;;;;19.24;66.42;101242.47;4922441;28;127176;-69
2021/06/08 06:01:10;;;;;;;26.83;23.92;;;;;;;19.16;67.18;101240.47;4924010;28;128115;-72
2021/06/08 06:03:37;;;;;;;26.75;23.92;;;;;;;19.26;66.18;101244.91;4941688;28;98390;-73
2021/06/08 06:06:04;;;;;;;25.02;22.33;;;;;;;21.52;59.42;101235.94;4941075;28;98489;-72
2021/06/08 06:08:31;;;;;;;25.25;22.75;;;;;;;22.68;54.77;101240.56;4922398;28;98021;-73
2021/06/08 06:10:59;;;;;;;20.65;18.45;;;;;;;24.37;50.44;101242.97;4927471;28;98184;-70
2021/06/08 06:13:32;;;;;;;21.92;19.63;;;;;;;25.49;47.31;101253.59;4923770;28;98248;-69
2021/06/08 06:15:59;;;;;;;20.67;18.67;;;;;;;26.05;45.86;101251.66;4943734;28;98083;-73
2021/06/08 06:18:25;;;;;;;21.60;19.60;;;;;;;24.94;48.00;101259.41;4922555;28;119214;-73
2021/06/08 06:20:52;;;;;;;20.27;18.48;;;;;;;25.04;47.83;101260.13;4938870;28;127774;-73
2021/06/08 06:23:23;;;;;;;22.23;20.23;;;;;;;23.83;50.44;101257.59;4924116;28;98194;-73
2021/06/08 06:25:50;;;;;;;21.40;19.53;;;;;;;22.39;54.57;101257.78;4940585;28;97922;-73
2021/06/08 06:28:16;;;;;;;22.33;19.92;;;;;;;22.55;55.16;101256.91;4930225;28;98762;-69
2021/06/08 06:30:43;;;;;;;20.88;18.88;;;;;;;22.77;54.27;101247.59;4938396;28;110347;-73
2021/06/08 06:33:09;;;;;;;22.25;20.13;;;;;;;23.78;51.55;101255.06;4940506;28;98770;-73
2021/06/08 06:35:35;;;;;;;22.58;20.48;;;;;;;24.41;48.74;101250.22;4925451;28;97999;-72
2021/06/08 06:38:07;;;;;;;20.50;18.60;;;;;;;24.17;50.14;101248.19;4941790;28;129558;-69
2021/06/08 06:40:34;;;;;;;19.70;17.88;;;;;;;23.76;51.13;101254.59;4942627;28;98683;-69
2021/06/08 06:43:04;;;;;;;18.30;16.58;;;;;;;25.19;48.06;101245.63;4940847;28;98346;-73
2021/06/08 06:45:31;;;;;;;17.80;16.17;;;;;;;25.66;47.16;101254.13;4918026;28;98156;-73
2021/06/08 06:48:04;;;;;;;18.67;16.88;;;;;;;25.19;47.84;101246.44;4920616;28;98041;-69
2021/06/08 06:50:32;;;;;;;18.45;16.75;;;;;;;24.98;47.91;101245.75;4921692;28;98331;-69
2021/06/08 06:52:58;;;;;;;18.90;17.20;;;;;;;25.78;45.57;101241.44;4922653;28;99556;-72
2021/06/08 06:55:25;;;;;;;17.17;15.68;;;;;;;26.08;44.57;101234.38;4922317;28;97929;-73
2021/06/08 06:57:53;;;;;;;17.17;15.57;;;;;;;25.88;45.32;101236.22;4922590;28;98392;-69
2021/06/08 07:00:20;;;;;;;16.52;15.10;;;;;;;26.76;43.89;101233.34;4922774;28;98631;-70
2021/06/08 07:02:46;;;;;;;17.67;15.98;;;;;;;26.79;43.78;101232.63;4920191;28;98166;-69
2021/06/08 07:05:13;;;;;;;18.42;16.63;;;;;;;26.29;44.74;101236.91;4923509;28;97925;-69
2021/06/08 07:07:39;;;;;;;17.00;15.50;;;;;;;27.39;43.02;101236.00;4903432;28;98155;-73
2021/06/08 07:10:09;;;;;;;16.95;15.45;;;;;;;26.43;44.71;101240.03;4939390;28;126425;-69
2021/06/08 07:12:36;;;;;;;15.85;14.45;;;;;;;25.83;43.77;101243.97;4924810;28;98186;-69
2021/06/08 07:15:02;;;;;;;15.73;14.30;;;;;;;27.23;41.63;101231.66;4941995;28;99249;-73
2021/06/08 07:17:28;;;;;;;14.98;13.30;;;;;;;26.50;43.61;101239.44;4938103;28;114987;-69
2021/06/08 07:19:57;;;;;;;14.98;13.63;;;;;;;27.19;42.84;101228.81;4922123;28;128081;-69
2021/06/08 07:22:23;;;;;;;14.43;13.10;;;;;;;27.92;39.90;101234.66;4922695;28;127224;-69
2021/06/08 07:24:49;;;;;;;14.80;13.40;;;;;;;28.04;40.37;101232.53;4908554;28;98194;-69
2021/06/08 07:27:15;;;;;;;14.75;13.35;;;;;;;27.53;41.55;101240.22;4922958;28;128594;-74
2021/06/08 07:29:42;;;;;;;16.45;14.75;;;;;;;26.05;44.18;101240.59;4921934;28;98509;-69
2021/06/08 07:32:18;;;;;;;15.18;13.75;;;;;;;26.08;45.74;101241.88;4919125;28;127432;-73
2021/06/08 07:35:07;;;;;;;14.07;12.82;;;;;;;27.81;41.70;101234.47;4921083;28;97980;-73
2021/06/08 07:37:34;;;;;;;14.00;12.73;;;;;;;28.47;40.03;101236.06;4905958;28;98856;-69
2021/06/08 07:40:13;;;;;;;15.07;13.68;;;;;;;28.34;40.05;101229.09;4920310;28;98794;-73
2021/06/08 07:42:42;;;;;;;15.43;13.82;;;;;;;28.12;40.63;101230.69;4889105;28;98042;-69
2021/06/08 07:45:14;;;;;;;14.63;13.32;;;;;;;28.84;38.96;101227.13;4920539;28;98094;-74
2021/06/08 07:47:40;;;;;;;14.18;12.85;;;;;;;29.47;37.38;101231.19;4928906;28;109494;-70
2021/06/08 07:50:10;;;;;;;14.43;13.05;;;;;;;29.63;37.40;101236.56;4922627;28;111643;-74
2021/06/08 07:52:37;;;;;;;13.43;12.23;;;;;;;29.76;36.79;101246.25;4940318;28;115140;-69
2021/06/08 07:55:05;;;;;;;14.30;12.98;;;;;;;30.41;35.21;101242.13;4911242;28;113968;-71
2021/06/08 07:57:31;;;;;;;13.93;12.57;;;;;;;31.30;33.32;101237.22;4921922;28;118346;-75
2021/06/08 07:59:58;;;;;;;13.32;12.13;;;;;;;30.88;34.98;101238.53;4920517;28;127653;-69
2021/06/08 08:02:24;;;;;;;14.07;12.77;;;;;;;29.83;36.93;101243.56;4903560;28;128540;-70
2021/06/08 08:04:52;;;;;;;13.48;12.10;;;;;;;31.16;33.97;101237.91;4922251;28;97977;-75
2021/06/08 08:07:25;;;;;;;14.13;12.70;;;;;;;31.07;33.44;101234.69;4921009;28;98591;-75
2021/06/08 08:09:52;;;;;;;13.00;11.80;;;;;;;31.87;32.27;101219.91;4922088;28;104557;-70
2021/06/08 08:12:19;;;;;;;12.63;11.55;;;;;;;31.83;32.81;101227.44;4919637;28;98018;-75
2021/06/08 08:14:46;;;;;;;12.88;11.63;;;;;;;33.43;29.55;101232.91;4920466;28;97926;-70
2021/06/08 08:17:12;;;;;;;13.13;12.02;;;;;;;33.54;29.46;101234.91;4919901;28;98095;-70
2021/06/08 08:19:40;;;;;;;12.32;11.13;;;;;;;33.93;29.64;101238.28;4920523;28;109436;-70
2021/06/08 08:22:06;;;;;;;11.70;10.70;;;;;;;33.02;30.26;101238.28;4922051;28;117438;-71
2021/06/08 08:24:33;;;;;;;12.75;11.65;;;;;;;33.55;29.00;101242.09;4941627;28;98031;-70
2021/06/08 08:27:04;;;;;;;12.18;11.13;;;;;;;33.45;30.40;101238.13;4921185;28;98620;-76
2021/06/08 08:29:31;;;;;;;12.87;11.70;;;;;;;32.02;30.73;101232.69;4921842;28;98182;-70
2021/06/08 08:31:57;;;;;;;12.00;10.90;;;;;;;33.45;29.59;101229.75;4921905;28;98131;-70
2021/06/08 08:34:23;;;;;;;12.02;10.85;;;;;;;34.88;26.73;101237.13;4919385;28;112482;-76
2021/06/08 08:36:49;;;;;;;11.57;10.52;;;;;;;34.62;28.21;101235.78;4921424;28;98403;-76
2021/06/08 08:39:15;;;;;;;11.45;10.27;;;;;;;34.81;28.28;101226.00;4928504;28;110970;-76
2021/06/08 08:41:42;;;;;;;11.98;10.95;;;;;;;35.48;26.02;101223.63;4921770;28;98255;-77
2021/06/08 08:44:08;;;;;;;11.88;10.95;;;;;;;35.32;26.49;101222.22;4906137;28;98320;-70
2021/06/08 08:46:35;;;;;;;11.95;10.80;;;;;;;35.32;26.21;101229.84;4926658;28;110768;-70
2021/06/08 08:49:01;;;;;;;11.45;10.40;;;;;;;33.66;28.37;101221.28;4944373;28;98590;-70
2021/06/08 08:51:28;;;;;;;11.95;10.95;;;;;;;35.06;26.68;101215.34;4935136;28;98218;-76
2021/06/08 08:53:57;;;;;;;11.57;10.63;;;;;;;34.74;27.71;101212.84;4924966;28;97927;-70
2021/06/08 08:56:34;;;;;;;12.02;11.02;;;;;;;36.00;25.81;101200.88;4924855;28;98965;-77
2021/06/08 08:59:04;;;;;;;11.70;10.68;;;;;;;35.66;27.37;101207.41;4924225;28;112663;-70
2021/06/08 09:01:31;;;;;;;12.77;11.57;;;;;;;35.97;25.74;101210.16;4925387;28;97887;-77
2021/06/08 09:03:57;;;;;;;12.73;11.63;;;;;;;35.43;26.77;101196.88;4924452;28;113758;-77
2021/06/08 09:06:23;;;;;;;11.88;10.85;;;;;;;35.50;26.58;101201.63;4889681;28;116042;-77
2021/06/08 09:08:49;;;;;;;12.07;11.02;;;;;;;35.19;27.42;101198.00;4888928;28;127005;-70
2021/06/08 09:11:15;;;;;;;12.25;11.05;;;;;;;33.54;30.02;101202.19;4906163;28;119322;-77
2021/06/08 09:13:43;;;;;;;12.98;11.88;;;;;;;35.25;26.66;101193.50;4906607;28;103858;-76
2021/06/08 09:16:10;;;;;;;12.60;11.40;;;;;;;34.77;27.63;101188.84;4895281;28;98438;-70
2021/06/08 09:18:37;;;;;;;12.32;11.13;;;;;;;34.21;28.36;101197.34;4929373;28;99386;-71
2021/06/08 09:21:25;;;;;;;12.57;11.40;;;;;;;33.45;29.61;101194.25;4924116;28;116816;-76
2021/06/08 09:23:51;;;;;;;12.55;11.45;;;;;;;31.46;32.26;101179.19;4932531;28;98179;-70
2021/06/08 09:26:18;;;;;;;11.55;10.45;;;;;;;32.64;31.69;101181.31;4925235;28;98503;-71
2021/06/08 09:28:45;;;;;;;12.80;11.70;;;;;;;32.20;31.29;101177.75;4923623;28;99173;-70
2021/06/08 09:31:20;;;;;;;11.90;10.70;;;;;;;32.92;30.80;101170.06;4927587;28;98478;-76
2021/06/08 09:33:48;;;;;;;10.90;9.90;;;;;;;33.29;29.29;101190.28;4906919;28;98265;-71
2021/06/08 09:36:28;;;;;;;11.68;10.57;;;;;;;34.87;27.63;101174.75;4925236;28;98389;-77
2021/06/08 09:39:02;;;;;;;11.15;10.05;;;;;;;36.44;26.25;101180.13;4923244;28;98519;-70
2021/06/08 09:41:44;;;;;;;11.55;10.45;;;;;;;37.12;24.26;101187.25;4924115;28;98023;-76
2021/06/08 09:44:18;;;;;;;11.32;10.35;;;;;;;35.82;26.27;101182.31;4933536;28;97733;-77
2021/06/08 09:46:49;;;;;;;11.32;10.23;;;;;;;35.68;26.47;101170.53;4942773;28;104626;-77
2021/06/08 09:49:17;;;;;;;11.45;10.48;;;;;;;37.19;24.26;101173.06;4939657;28;98376;-76
2021/06/08 09:51:51;;;;;;;11.30;10.20;;;;;;;37.03;24.10;101176.63;4923911;28;99196;-76
2021/06/08 09:54:45;;;;;;;10.57;9.57;;;;;;;37.77;23.42;101173.38;4924293;28;97776;-70
2021/06/08 09:57:28;;;;;;;10.32;9.43;;;;;;;37.38;23.68;101165.03;4924237;28;99204;-71
2021/06/08 09:59:59;;;;;;;10.00;9.20;;;;;;;35.97;24.61;101163.25;4933302;28;98220;-71
2021/06/08 10:02:34;;;;;;;9.50;8.70;;;;;;;38.38;21.35;101163.44;4943812;28;99265;-71
2021/06/08 10:05:29;;;;;;;10.10;9.20;;;;;;;37.99;22.37;101161.63;4943925;28;97739;-76
2021/06/08 10:07:58;;;;;;;10.70;9.80;;;;;;;38.23;21.97;101163.00;4942347;28;110722;-71
2021/06/08 10:10:36;;;;;;;9.45;8.75;;;;;;;37.76;22.82;101159.75;4943210;28;98436;-76
2021/06/08 10:13:05;;;;;;;9.27;8.48;;;;;;;37.35;23.35;101147.03;4929208;28;97996;-76
2021/06/08 10:15:50;;;;;;;9.18;8.40;;;;;;;36.43;24.71;101152.47;4922858;28;97839;-71
2021/06/08 10:18:17;;;;;;;8.63;7.93;;;;;;;36.13;23.81;101152.19;4923067;28;97785;-71
2021/06/08 10:20:53;;;;;;;8.02;7.43;;;;;;;37.65;23.40;101147.97;4923097;28;108329;-77
2021/06/08 10:23:23;;;;;;;8.93;8.13;;;;;;;38.39;21.53;101152.97;4924951;28;97886;-71
2021/06/08 10:25:50;;;;;;;9.05;8.20;;;;;;;38.13;22.85;101141.59;4922049;28;97882;-71
2021/06/08 10:28:17;;;;;;;7.63;6.93;;;;;;;36.89;22.89;101145.97;4914665;28;98447;-71
2021/06/08 10:30:44;;;;;;;7.95;7.25;;;;;;;36.41;23.01;101140.88;4922978;28;98465;-71
2021/06/08 10:33:10;;;;;;;7.75;7.05;;;;;;;36.07;23.03;101139.06;4922938;28;97989;-77
2021/06/08 10:35:36;;;;;;;8.02;7.25;;;;;;;36.44;22.84;101132.41;4906037;28;98173;-71
2021/06/08 10:38:07;;;;;;;8.23;7.43;;;;;;;35.31;23.43;101122.59;4889010;28;98522;-75
2021/06/08 10:40:34;;;;;;;7.57;6.97;;;;;;;35.62;24.26;101114.97;4927343;28;98575;-71
2021/06/08 10:43:01;;;;;;;7.30;6.63;;;;;;;36.83;23.56;101114.03;4924428;28;98037;-71
2021/06/08 10:45:38;;;;;;;7.55;6.90;;;;;;;37.10;23.51;101117.47;4943234;28;97877;-76
2021/06/08 10:48:16;;;;;;;8.05;7.45;;;;;;;35.54;23.75;101115.50;4941017;28;119564;-71
2021/06/08 10:50:46;;;;;;;7.50;6.80;;;;;;;34.73;23.86;101121.72;4924699;28;98204;-71
2021/06/08 10:53:33;;;;;;;7.65;6.95;;;;;;;37.51;22.49;101118.97;4905840;28;98336;-76
2021/06/08 10:56:00;;;;;;;8.30;7.70;;;;;;;37.91;21.42;101110.38;4939157;28;98227;-76
2021/06/08 10:58:51;;;;;;;7.50;6.90;;;;;;;37.02;22.27;101109.63;4923693;28;128587;-71
2021/06/08 11:01:34;;;;;;;7.43;6.73;;;;;;;35.68;24.31;101109.66;4922882;28;98414;-71
2021/06/08 11:04:05;;;;;;;6.38;5.78;;;;;;;34.78;23.55;101104.47;4923651;28;97873;-76
2021/06/08 11:06:37;;;;;;;6.40;5.85;;;;;;;36.65;22.01;101108.78;4919758;28;100486;-71
2021/06/08 11:09:12;;;;;;;6.03;5.50;;;;;;;35.14;23.74;101109.66;4929430;28;98328;-76
2021/06/08 11:11:57;;;;;;;5.80;5.40;;;;;;;35.65;23.36;101093.72;4938629;28;98611;-71
2021/06/08 11:14:39;;;;;;;6.38;5.85;;;;;;;36.07;23.81;101105.44;4940749;28;99818;-76
2021/06/08 11:17:08;;;;;;;6.82;6.13;;;;;;;35.27;24.58;101105.03;4939533;28;97967;-71